createdAt,value
2023-04-30T00:02:17.798Z,101752.88
2023-04-30T00:04:47.762Z,101758.16
2023-04-30T00:07:17.500Z,101767.47
2023-04-30T00:09:47.246Z,101771.75
2023-04-30T00:12:19.784Z,101774.34
2023-04-30T00:14:49.586Z,101767.31
2023-04-30T00:17:19.312Z,101767.38
2023-04-30T00:19:49.007Z,101773.00
2023-04-30T00:22:18.745Z,101775.41
2023-04-30T00:24:48.766Z,101780.06
2023-04-30T00:27:21.443Z,101775.06
2023-04-30T00:29:51.197Z,101756.97
2023-04-30T00:32:21.514Z,101781.22
2023-04-30T00:34:51.553Z,101770.06
2023-04-30T00:37:21.337Z,101761.63
2023-04-30T00:39:51.156Z,101770.44
2023-04-30T00:42:23.487Z,101777.63
2023-04-30T00:44:53.209Z,101780.00
2023-04-30T00:47:23.013Z,101783.16
2023-04-30T00:49:52.988Z,101773.09
2023-04-30T00:52:22.923Z,101782.56
2023-04-30T00:54:54.503Z,101770.78
2023-04-30T00:57:27.946Z,101775.88
2023-04-30T00:59:58.270Z,101752.03
2023-04-30T01:02:28.440Z,101794.56
2023-04-30T01:04:58.855Z,101783.06
2023-04-30T01:07:29.524Z,101788.84
2023-04-30T01:09:59.506Z,101793.03
2023-04-30T01:12:40.440Z,101797.34
2023-04-30T01:15:25.667Z,101797.03
2023-04-30T01:17:59.989Z,101801.09
2023-04-30T01:20:32.561Z,101800.22
2023-04-30T01:23:16.785Z,101802.69
2023-04-30T01:26:10.913Z,101796.34
2023-04-30T01:28:47.549Z,101806.50
2023-04-30T01:31:17.525Z,101807.13
2023-04-30T01:33:47.330Z,101798.16
2023-04-30T01:36:27.346Z,101793.41
2023-04-30T01:39:08.699Z,101816.00
2023-04-30T01:41:45.260Z,101755.75
2023-04-30T01:44:40.959Z,101804.84
2023-04-30T01:47:20.999Z,101797.25
2023-04-30T01:50:00.720Z,101797.00
2023-04-30T01:52:36.131Z,101797.00
2023-04-30T01:55:11.305Z,101806.56
2023-04-30T01:57:44.394Z,101803.88
2023-04-30T02:00:18.093Z,101803.97
2023-04-30T02:02:47.920Z,101811.66
2023-04-30T02:05:18.847Z,101815.31
2023-04-30T02:07:51.647Z,101804.28
2023-04-30T02:10:22.586Z,101821.41
2023-04-30T02:12:52.479Z,101788.59
2023-04-30T02:15:24.984Z,101817.09
2023-04-30T02:17:54.792Z,101825.25
2023-04-30T02:20:24.597Z,101811.94
2023-04-30T02:22:54.420Z,101822.94
2023-04-30T02:25:24.195Z,101812.69
2023-04-30T02:27:53.941Z,101826.69
2023-04-30T02:30:26.237Z,101812.78
2023-04-30T02:32:56.009Z,101831.06
2023-04-30T02:35:25.765Z,101834.25
2023-04-30T02:37:55.589Z,101838.72
2023-04-30T02:40:25.333Z,101831.91
2023-04-30T02:42:56.953Z,101843.81
2023-04-30T02:45:29.312Z,101844.09
2023-04-30T02:47:59.148Z,101831.91
2023-04-30T02:50:28.944Z,101834.59
2023-04-30T02:52:58.912Z,101841.81
2023-04-30T02:55:28.671Z,101856.72
2023-04-30T02:57:58.771Z,101830.78
2023-04-30T03:00:31.118Z,101817.72
2023-04-30T03:03:01.169Z,101841.53
2023-04-30T03:05:31.698Z,101844.94
2023-04-30T03:08:01.425Z,101827.56
2023-04-30T03:10:31.196Z,101838.16
2023-04-30T03:13:01.331Z,101833.00
2023-04-30T03:15:35.660Z,101827.75
2023-04-30T03:18:05.479Z,101850.81
2023-04-30T03:20:35.237Z,101844.81
2023-04-30T03:23:05.095Z,101855.53
2023-04-30T03:25:34.872Z,101841.44
2023-04-30T03:28:04.589Z,101847.63
2023-04-30T03:30:37.008Z,101844.81
2023-04-30T03:33:07.379Z,101854.00
2023-04-30T03:35:37.536Z,101794.53
2023-04-30T03:38:07.262Z,101840.09
2023-04-30T03:40:36.966Z,101858.19
2023-04-30T03:43:06.809Z,101862.38
2023-04-30T03:45:39.230Z,101867.72
2023-04-30T03:48:09.249Z,101841.84
2023-04-30T03:50:39.064Z,101864.56
2023-04-30T03:53:11.590Z,101846.66
2023-04-30T03:55:41.736Z,101868.75
2023-04-30T03:58:11.592Z,101853.03
2023-04-30T04:00:45.877Z,101857.34
2023-04-30T04:03:15.997Z,101847.00
2023-04-30T04:05:46.287Z,101853.16
2023-04-30T04:08:16.179Z,101865.19
2023-04-30T04:10:46.673Z,101862.03
2023-04-30T04:13:16.409Z,101844.84
2023-04-30T04:15:48.789Z,101870.88
2023-04-30T04:18:18.668Z,101871.66
2023-04-30T04:20:48.447Z,101867.09
2023-04-30T04:23:19.478Z,101875.06
2023-04-30T04:25:49.783Z,101843.19
2023-04-30T04:28:19.577Z,101866.41
2023-04-30T04:30:52.634Z,101854.69
2023-04-30T04:33:22.443Z,101876.97
2023-04-30T04:35:52.208Z,101877.91
2023-04-30T04:38:23.029Z,101862.19
2023-04-30T04:40:56.161Z,101847.34
2023-04-30T04:43:26.420Z,101877.13
2023-04-30T04:45:59.148Z,101886.91
2023-04-30T04:48:28.856Z,101881.28
2023-04-30T04:50:59.224Z,101867.63
2023-04-30T04:53:28.990Z,101872.88
2023-04-30T04:55:58.712Z,101867.88
2023-04-30T04:58:28.439Z,101878.91
2023-04-30T05:01:01.596Z,101895.16
2023-04-30T05:03:33.944Z,101903.72
2023-04-30T05:06:03.850Z,101890.06
2023-04-30T05:08:34.473Z,101906.66
2023-04-30T05:11:04.199Z,101909.88
2023-04-30T05:13:33.981Z,101901.31
2023-04-30T05:16:06.803Z,101909.88
2023-04-30T05:18:36.544Z,101882.28
2023-04-30T05:21:06.925Z,101909.69
2023-04-30T05:23:36.650Z,101906.78
2023-04-30T05:26:06.575Z,101903.56
2023-04-30T05:28:36.396Z,101891.09
2023-04-30T05:31:08.913Z,101902.00
2023-04-30T05:33:40.993Z,101895.28
2023-04-30T05:36:11.022Z,101904.28
2023-04-30T05:38:40.854Z,101908.78
2023-04-30T05:41:10.685Z,101893.44
2023-04-30T05:43:40.451Z,101892.81
2023-04-30T05:46:12.849Z,101907.53
2023-04-30T05:48:42.685Z,101907.97
2023-04-30T05:51:12.680Z,101902.31
2023-04-30T05:53:42.431Z,101898.44
2023-04-30T05:56:12.703Z,101892.56
2023-04-30T05:58:42.483Z,101882.88
2023-04-30T06:01:14.768Z,101905.78
2023-04-30T06:03:44.558Z,101908.00
2023-04-30T06:06:14.378Z,101885.97
2023-04-30T06:08:45.740Z,101901.34
2023-04-30T06:11:16.436Z,101897.03
2023-04-30T06:13:46.246Z,101910.22
2023-04-30T06:16:18.656Z,101914.97
2023-04-30T06:18:48.523Z,101908.75
2023-04-30T06:21:18.508Z,101921.66
2023-04-30T06:23:48.238Z,101874.78
2023-04-30T06:26:18.041Z,101913.13
2023-04-30T06:28:47.765Z,101928.41
2023-04-30T06:31:20.145Z,101928.53
2023-04-30T06:33:50.373Z,101918.03
2023-04-30T06:36:20.503Z,101922.72
2023-04-30T06:38:50.234Z,101921.94
2023-04-30T06:41:20.065Z,101912.28
2023-04-30T06:43:49.803Z,101936.25
2023-04-30T06:46:22.204Z,101929.75
2023-04-30T06:48:51.987Z,101932.59
2023-04-30T06:51:21.739Z,101909.56
2023-04-30T06:53:51.465Z,101942.84
2023-04-30T06:56:22.177Z,101940.72
2023-04-30T06:58:52.682Z,101930.91
2023-04-30T07:01:25.036Z,101945.16
2023-04-30T07:03:55.640Z,101933.50
2023-04-30T07:06:25.669Z,101952.41
2023-04-30T07:08:55.466Z,101943.47
2023-04-30T07:11:25.188Z,101942.97
2023-04-30T07:13:55.040Z,101916.41
2023-04-30T07:16:28.692Z,101938.38
2023-04-30T07:18:59.430Z,101894.69
2023-04-30T07:21:29.370Z,101941.31
2023-04-30T07:23:59.203Z,101929.66
2023-04-30T07:26:28.941Z,101947.19
2023-04-30T07:28:58.646Z,101947.94
2023-04-30T07:31:30.976Z,101956.03
2023-04-30T07:34:00.734Z,101950.25
2023-04-30T07:36:31.148Z,101928.09
2023-04-30T07:39:01.135Z,101929.16
2023-04-30T07:41:30.861Z,101955.69
2023-04-30T07:44:00.611Z,101950.94
2023-04-30T07:46:32.962Z,101937.78
2023-04-30T07:49:02.760Z,101919.44
2023-04-30T07:51:33.051Z,101946.06
2023-04-30T07:54:04.122Z,101930.28
2023-04-30T07:56:34.136Z,101950.50
2023-04-30T07:59:03.867Z,101954.38
2023-04-30T08:01:36.249Z,101945.47
2023-04-30T08:04:07.479Z,101942.56
2023-04-30T08:06:37.224Z,101931.97
2023-04-30T08:09:07.393Z,101945.94
2023-04-30T08:11:37.181Z,101951.78
2023-04-30T08:14:07.184Z,101939.84
2023-04-30T08:16:39.611Z,101940.34
2023-04-30T08:19:09.537Z,101943.38
2023-04-30T08:21:39.443Z,101943.97
2023-04-30T08:24:09.261Z,101959.19
2023-04-30T08:26:38.989Z,101953.38
2023-04-30T08:29:08.729Z,101957.28
2023-04-30T08:31:41.197Z,101948.88
2023-04-30T08:34:10.984Z,101956.78
2023-04-30T08:36:40.710Z,101945.63
2023-04-30T08:39:10.422Z,101958.13
2023-04-30T08:41:43.510Z,101937.22
2023-04-30T08:44:14.049Z,101926.72
2023-04-30T08:46:48.268Z,101930.72
2023-04-30T08:49:18.019Z,101888.38
2023-04-30T08:51:49.358Z,101938.16
2023-04-30T08:54:21.184Z,101914.66
2023-04-30T08:56:51.086Z,101937.69
2023-04-30T08:59:21.157Z,101948.31
2023-04-30T09:01:54.083Z,101940.41
2023-04-30T09:04:23.909Z,101940.97
2023-04-30T09:06:59.144Z,101921.75
2023-04-30T09:09:32.019Z,101924.94
2023-04-30T09:12:19.309Z,101930.00
2023-04-30T09:15:03.991Z,101934.78
2023-04-30T09:17:38.593Z,101931.47
2023-04-30T09:20:13.570Z,101923.81
2023-04-30T09:22:45.584Z,101887.88
2023-04-30T09:25:16.692Z,101908.66
2023-04-30T09:27:48.563Z,101895.84
2023-04-30T09:30:34.942Z,101908.56
2023-04-30T09:33:11.491Z,101909.56
2023-04-30T09:35:43.566Z,101911.00
2023-04-30T09:38:29.701Z,101843.06
2023-04-30T09:41:02.050Z,101912.25
2023-04-30T09:43:32.113Z,101895.00
2023-04-30T09:46:02.916Z,101919.88
2023-04-30T09:48:36.112Z,101887.13
2023-04-30T09:51:07.017Z,101896.06
2023-04-30T09:53:41.005Z,101884.25
2023-04-30T09:56:13.283Z,101906.94
2023-04-30T09:58:52.002Z,101902.50
2023-04-30T10:01:22.894Z,101888.13
2023-04-30T10:03:56.815Z,101893.41
2023-04-30T10:06:28.830Z,101894.06
2023-04-30T10:09:02.497Z,101908.34
2023-04-30T10:11:35.943Z,101887.56
2023-04-30T10:14:14.271Z,101885.97
2023-04-30T10:16:50.945Z,101897.44
2023-04-30T10:19:29.224Z,101901.25
2023-04-30T10:21:59.787Z,101900.53
2023-04-30T10:24:30.095Z,101889.09
2023-04-30T10:27:00.436Z,101865.19
2023-04-30T10:29:30.974Z,101884.53
2023-04-30T10:32:02.223Z,101870.66
2023-04-30T10:34:46.407Z,101885.38
2023-04-30T10:37:24.246Z,101871.41
2023-04-30T10:39:56.214Z,101876.31
2023-04-30T10:42:26.985Z,101874.66
2023-04-30T10:44:57.733Z,101882.50
2023-04-30T10:47:32.926Z,101864.88
2023-04-30T10:50:12.275Z,101870.44
2023-04-30T10:52:44.043Z,101823.88
2023-04-30T10:55:14.846Z,101856.56
2023-04-30T10:57:48.685Z,101862.56
2023-04-30T11:00:23.399Z,101851.38
2023-04-30T11:03:01.268Z,101833.31
2023-04-30T11:05:41.914Z,101853.59
2023-04-30T11:08:15.123Z,101847.94
2023-04-30T11:11:01.245Z,101841.88
2023-04-30T11:13:31.559Z,101850.66
2023-04-30T11:16:06.859Z,101854.59
2023-04-30T11:18:36.758Z,101844.78
2023-04-30T11:21:11.617Z,101852.16
2023-04-30T11:23:45.146Z,101832.16
2023-04-30T11:26:15.522Z,101848.81
2023-04-30T11:28:54.723Z,101837.91
2023-04-30T11:31:25.963Z,101830.94
2023-04-30T11:33:59.223Z,101851.66
2023-04-30T11:36:34.851Z,101838.84
2023-04-30T11:39:09.593Z,101843.00
2023-04-30T11:41:44.730Z,101835.78
2023-04-30T11:44:26.248Z,101800.34
2023-04-30T11:46:57.334Z,101826.34
2023-04-30T11:49:27.878Z,101817.91
2023-04-30T11:52:01.099Z,101808.66
2023-04-30T11:54:35.526Z,101800.84
2023-04-30T11:57:06.932Z,101817.41
2023-04-30T11:59:44.564Z,101803.88
2023-04-30T12:02:18.801Z,101809.25
2023-04-30T12:04:49.536Z,101757.63
2023-04-30T12:07:23.757Z,101820.13
2023-04-30T12:09:57.807Z,101803.16
2023-04-30T12:12:33.088Z,101805.97
2023-04-30T12:15:14.421Z,101800.63
2023-04-30T12:17:45.371Z,101774.00
2023-04-30T12:20:18.801Z,101792.13
2023-04-30T12:22:51.763Z,101800.06
2023-04-30T12:25:23.359Z,101803.75
2023-04-30T12:27:54.655Z,101799.34
2023-04-30T12:30:27.102Z,101798.56
2023-04-30T12:33:00.541Z,101797.97
2023-04-30T12:35:32.689Z,101794.53
2023-04-30T12:38:09.777Z,101790.97
2023-04-30T12:40:40.952Z,101800.75
2023-04-30T12:43:11.901Z,101793.97
2023-04-30T12:45:51.436Z,101784.47
2023-04-30T12:48:22.845Z,101782.69
2023-04-30T12:50:57.060Z,101743.13
2023-04-30T12:53:29.960Z,101756.69
2023-04-30T12:56:16.937Z,101765.69
2023-04-30T12:58:48.631Z,101766.63
2023-04-30T13:01:21.103Z,101765.03
2023-04-30T13:03:51.133Z,101734.97
2023-04-30T13:06:21.118Z,101761.13
2023-04-30T13:11:27.153Z,101754.47
2023-04-30T13:13:57.914Z,101749.13
2023-04-30T13:16:28.541Z,101740.69
2023-04-30T13:18:58.323Z,101729.53
2023-04-30T13:21:28.118Z,101746.81
2023-04-30T13:24:00.423Z,101728.72
2023-04-30T13:26:30.822Z,101733.19
2023-04-30T13:29:00.751Z,101720.50
2023-04-30T13:31:30.678Z,101731.75
2023-04-30T13:34:00.659Z,101722.28
2023-04-30T13:36:30.396Z,101690.50
2023-04-30T13:39:03.004Z,101699.34
2023-04-30T13:41:32.805Z,101703.59
2023-04-30T13:44:03.222Z,101704.56
2023-04-30T13:46:33.125Z,101699.44
2023-04-30T13:49:03.108Z,101703.88
2023-04-30T13:51:32.825Z,101686.44
2023-04-30T13:54:05.193Z,101697.75
2023-04-30T13:56:35.085Z,101687.16
2023-04-30T13:59:05.000Z,101652.47
2023-04-30T14:01:34.784Z,101662.03
2023-04-30T14:04:04.945Z,101692.44
2023-04-30T14:06:34.893Z,101612.94
2023-04-30T14:09:07.397Z,101684.03
2023-04-30T14:11:37.191Z,101675.53
2023-04-30T14:14:07.396Z,101653.19
2023-04-30T14:16:37.360Z,101673.84
2023-04-30T14:19:07.130Z,101666.97
2023-04-30T14:21:37.002Z,101658.41
2023-04-30T14:24:10.090Z,101624.84
2023-04-30T14:26:40.840Z,101660.19
2023-04-30T14:29:10.598Z,101651.53
2023-04-30T14:31:40.438Z,101647.31
2023-04-30T14:34:10.223Z,101660.25
2023-04-30T14:36:40.376Z,101654.19
2023-04-30T14:39:13.093Z,101652.56
2023-04-30T14:41:42.939Z,101649.94
2023-04-30T14:44:12.695Z,101647.44
2023-04-30T14:46:42.481Z,101635.28
2023-04-30T14:49:12.198Z,101643.00
2023-04-30T14:51:42.097Z,101643.19
2023-04-30T14:54:14.464Z,101617.22
2023-04-30T14:56:44.574Z,101641.16
2023-04-30T14:59:14.798Z,101645.47
2023-04-30T15:01:44.890Z,101604.06
2023-04-30T15:04:14.667Z,101640.50
2023-04-30T15:06:44.517Z,101630.94
2023-04-30T15:09:17.026Z,101624.13
2023-04-30T15:11:46.735Z,101619.69
2023-04-30T15:14:17.212Z,101630.94
2023-04-30T15:16:47.293Z,101594.63
2023-04-30T15:19:17.199Z,101624.19
2023-04-30T15:21:48.975Z,101623.41
2023-04-30T15:24:21.788Z,101613.22
2023-04-30T15:26:52.728Z,101629.66
2023-04-30T15:29:22.569Z,101634.84
2023-04-30T15:31:54.077Z,101623.69
2023-04-30T15:34:25.127Z,101615.81
2023-04-30T15:36:54.938Z,101593.22
2023-04-30T15:39:27.243Z,101590.72
2023-04-30T15:41:57.073Z,101563.78
2023-04-30T15:44:26.925Z,101594.88
2023-04-30T15:46:56.936Z,101596.72
2023-04-30T15:49:26.806Z,101609.75
2023-04-30T15:51:56.497Z,101608.13
2023-04-30T15:54:28.880Z,101605.41
2023-04-30T15:56:59.785Z,101592.53
2023-04-30T15:59:29.883Z,101584.84
2023-04-30T16:01:59.661Z,101585.78
2023-04-30T16:04:29.574Z,101562.47
2023-04-30T16:06:59.478Z,101579.78
2023-04-30T16:09:31.915Z,101596.09
2023-04-30T16:12:02.294Z,101590.00
2023-04-30T16:14:32.043Z,101578.78
2023-04-30T16:17:01.962Z,101576.09
2023-04-30T16:19:31.891Z,101572.50
2023-04-30T16:22:01.925Z,101578.34
2023-04-30T16:24:34.244Z,101579.38
2023-04-30T16:27:04.075Z,101579.31
2023-04-30T16:29:34.059Z,101570.75
2023-04-30T16:32:03.821Z,101584.59
2023-04-30T16:34:33.666Z,101574.31
2023-04-30T16:37:03.806Z,101563.06
2023-04-30T16:39:36.133Z,101565.50
2023-04-30T16:42:06.054Z,101568.00
2023-04-30T16:44:35.850Z,101553.34
2023-04-30T16:47:05.574Z,101541.28
2023-04-30T16:49:35.322Z,101554.22
2023-04-30T16:52:05.166Z,101558.50
2023-04-30T16:54:37.484Z,101543.06
2023-04-30T16:57:07.408Z,101552.50
2023-04-30T16:59:37.731Z,101541.19
2023-04-30T17:02:08.302Z,101548.22
2023-04-30T17:04:38.133Z,101538.69
2023-04-30T17:07:07.941Z,101544.81
2023-04-30T17:09:40.278Z,101542.19
2023-04-30T17:12:10.009Z,101546.50
2023-04-30T17:14:40.205Z,101545.72
2023-04-30T17:17:09.936Z,101537.78
2023-04-30T17:19:39.672Z,101535.88
2023-04-30T17:22:09.372Z,101533.31
2023-04-30T17:24:42.039Z,101543.66
2023-04-30T17:27:11.987Z,101536.66
2023-04-30T17:29:41.914Z,101529.72
2023-04-30T17:32:11.840Z,101543.38
2023-04-30T17:34:42.550Z,101534.66
2023-04-30T17:37:12.412Z,101547.59
2023-04-30T17:39:44.721Z,101545.84
2023-04-30T17:42:15.020Z,101538.94
2023-04-30T17:44:44.852Z,101531.97
2023-04-30T17:47:16.200Z,101518.91
2023-04-30T17:49:46.117Z,101511.09
2023-04-30T17:52:15.900Z,101531.72
2023-04-30T17:54:48.235Z,101533.50
2023-04-30T17:57:17.985Z,101469.44
2023-04-30T17:59:47.720Z,101530.75
2023-04-30T18:02:17.521Z,101512.59
2023-04-30T18:04:47.407Z,101525.50
2023-04-30T18:07:17.150Z,101528.84
2023-04-30T18:09:49.571Z,101510.66
2023-04-30T18:12:20.138Z,101533.94
2023-04-30T18:14:49.985Z,101528.72
2023-04-30T18:17:19.764Z,101532.16
2023-04-30T18:19:49.959Z,101534.63
2023-04-30T18:22:19.847Z,101513.81
2023-04-30T18:24:52.189Z,101528.50
2023-04-30T18:27:21.938Z,101523.16
2023-04-30T18:29:52.444Z,101522.28
2023-04-30T18:32:22.377Z,101517.88
2023-04-30T18:34:52.109Z,101529.06
2023-04-30T18:37:21.875Z,101533.25
2023-04-30T18:39:54.706Z,101527.16
2023-04-30T18:42:25.247Z,101514.03
2023-04-30T18:44:55.488Z,101506.16
2023-04-30T18:47:25.281Z,101511.34
2023-04-30T18:49:55.377Z,101530.25
2023-04-30T18:52:25.412Z,101523.31
2023-04-30T18:54:57.955Z,101490.44
2023-04-30T18:57:28.528Z,101466.25
2023-04-30T18:59:58.830Z,101522.97
2023-04-30T19:02:28.854Z,101527.00
2023-04-30T19:04:58.676Z,101504.34
2023-04-30T19:07:28.577Z,101518.84
2023-04-30T19:10:02.297Z,101497.09
2023-04-30T19:12:32.145Z,101521.09
2023-04-30T19:15:01.887Z,101515.72
2023-04-30T19:17:31.747Z,101526.97
2023-04-30T19:20:01.631Z,101528.53
2023-04-30T19:22:31.720Z,101534.63
2023-04-30T19:25:04.033Z,101533.41
2023-04-30T19:27:33.790Z,101541.50
2023-04-30T19:30:03.669Z,101531.81
2023-04-30T19:32:33.475Z,101518.91
2023-04-30T19:35:03.325Z,101534.53
2023-04-30T19:37:33.322Z,101535.09
2023-04-30T19:40:07.009Z,101539.19
2023-04-30T19:42:36.734Z,101546.66
2023-04-30T19:45:06.850Z,101530.34
2023-04-30T19:47:36.709Z,101530.38
2023-04-30T19:50:06.890Z,101545.91
2023-04-30T19:52:36.663Z,101539.03
2023-04-30T19:55:09.598Z,101534.69
2023-04-30T19:57:39.326Z,101542.31
2023-04-30T20:00:13.067Z,101516.31
2023-04-30T20:02:43.745Z,101525.81
2023-04-30T20:05:13.589Z,101537.84
2023-04-30T20:07:43.325Z,101521.34
2023-04-30T20:10:15.836Z,101505.78
2023-04-30T20:12:45.593Z,101503.78
2023-04-30T20:15:15.328Z,101523.50
2023-04-30T20:17:45.814Z,101512.78
2023-04-30T20:20:16.422Z,101527.31
2023-04-30T20:22:46.792Z,101518.94
2023-04-30T20:25:19.130Z,101530.06
2023-04-30T20:27:48.970Z,101513.50
2023-04-30T20:30:18.759Z,101482.19
2023-04-30T20:32:48.692Z,101515.63
2023-04-30T20:35:18.576Z,101510.94
2023-04-30T20:37:49.821Z,101494.53
2023-04-30T20:40:22.550Z,101507.19
2023-04-30T20:42:52.460Z,101496.78
2023-04-30T20:45:23.305Z,101513.38
2023-04-30T20:47:53.408Z,101464.53
2023-04-30T20:50:23.302Z,101509.31
2023-04-30T20:52:53.027Z,101514.50
2023-04-30T20:55:25.472Z,101506.06
2023-04-30T20:57:55.292Z,101494.53
2023-04-30T21:00:25.293Z,101504.94
2023-04-30T21:02:55.271Z,101493.53
2023-04-30T21:05:25.185Z,101483.13
2023-04-30T21:07:55.134Z,101488.78
2023-04-30T21:10:27.480Z,101479.09
2023-04-30T21:12:58.011Z,101497.78
2023-04-30T21:15:29.020Z,101480.03
2023-04-30T21:17:58.817Z,101497.38
2023-04-30T21:20:28.625Z,101490.53
2023-04-30T21:22:58.416Z,101496.06
2023-04-30T21:25:31.168Z,101495.19
2023-04-30T21:28:01.457Z,101492.88
2023-04-30T21:30:31.479Z,101457.38
2023-04-30T21:33:01.313Z,101485.22
2023-04-30T21:35:33.245Z,101474.72
2023-04-30T21:38:03.084Z,101484.00
2023-04-30T21:40:36.855Z,101472.84
2023-04-30T21:43:07.021Z,101482.13
2023-04-30T21:45:36.768Z,101474.38
2023-04-30T21:48:07.036Z,101443.06
2023-04-30T21:50:38.586Z,101469.22
2023-04-30T21:53:08.425Z,101456.16
2023-04-30T21:55:40.859Z,101466.00
2023-04-30T21:58:10.596Z,101459.81
2023-04-30T22:00:40.901Z,101440.59
2023-04-30T22:03:10.823Z,101451.59
2023-04-30T22:05:43.289Z,101463.34
2023-04-30T22:08:13.050Z,101465.81
2023-04-30T22:10:45.440Z,101448.53
2023-04-30T22:13:15.489Z,101459.53
2023-04-30T22:15:48.370Z,101406.50
2023-04-30T22:18:18.585Z,101454.88
2023-04-30T22:20:48.352Z,101425.66
2023-04-30T22:23:18.510Z,101445.09
2023-04-30T22:25:50.953Z,101432.75
2023-04-30T22:28:21.234Z,101456.06
2023-04-30T22:30:51.072Z,101457.75
2023-04-30T22:33:22.066Z,101453.47
2023-04-30T22:35:52.620Z,101432.53
2023-04-30T22:38:22.489Z,101456.56
2023-04-30T22:40:54.970Z,101452.44
2023-04-30T22:43:24.814Z,101454.53
2023-04-30T22:45:54.768Z,101435.59
2023-04-30T22:48:24.902Z,101434.03
2023-04-30T22:50:55.667Z,101428.19
2023-04-30T22:53:25.528Z,101411.75
2023-04-30T22:55:58.002Z,101431.78
2023-04-30T22:58:27.778Z,101438.41
2023-04-30T23:00:57.754Z,101391.59
2023-04-30T23:03:27.502Z,101423.69
2023-04-30T23:05:57.320Z,101433.63
2023-04-30T23:08:27.222Z,101399.13
2023-04-30T23:11:00.560Z,101378.13
2023-04-30T23:13:30.356Z,101411.38
2023-04-30T23:16:01.473Z,101430.25
2023-04-30T23:18:31.707Z,101431.53
2023-04-30T23:21:01.733Z,101417.16
2023-04-30T23:23:31.457Z,101422.47
2023-04-30T23:26:04.265Z,101398.41
2023-04-30T23:28:34.056Z,101381.59
2023-04-30T23:31:03.798Z,101397.19
2023-04-30T23:33:33.552Z,101395.72
2023-04-30T23:36:03.304Z,101404.13
2023-04-30T23:38:33.013Z,101403.03
2023-04-30T23:41:05.713Z,101374.69
2023-04-30T23:43:35.556Z,101393.97
2023-04-30T23:46:05.349Z,101396.41
2023-04-30T23:48:36.151Z,101397.34
2023-04-30T23:51:08.995Z,101381.22
2023-04-30T23:53:38.922Z,101394.81
2023-04-30T23:56:11.630Z,101378.38
2023-04-30T23:58:41.463Z,101391.84
